sensor_id;sensor_type;location;lat;lon;timestamp;P1;durP1;ratioP1;P2;durP2;ratioP2
65835;SDS011;52595;51.608;7.216;2022-11-20T00:00:27;24.48;;;11.55;;
65835;SDS011;52595;51.608;7.216;2022-11-20T00:02:52;23.95;;;12.23;;
65835;SDS011;52595;51.608;7.216;2022-11-20T00:05:18;24.60;;;12.38;;
65835;SDS011;52595;51.608;7.216;2022-11-20T00:07:44;25.50;;;11.90;;
65835;SDS011;52595;51.608;7.216;2022-11-20T00:10:09;24.00;;;12.85;;
65835;SDS011;52595;51.608;7.216;2022-11-20T00:12:34;26.38;;;12.85;;
65835;SDS011;52595;51.608;7.216;2022-11-20T00:15:00;23.27;;;12.15;;
65835;SDS011;52595;51.608;7.216;2022-11-20T00:17:25;23.55;;;12.05;;
65835;SDS011;52595;51.608;7.216;2022-11-20T00:19:51;25.13;;;12.45;;
65835;SDS011;52595;51.608;7.216;2022-11-20T00:22:16;24.05;;;11.93;;
65835;SDS011;52595;51.608;7.216;2022-11-20T00:24:42;22.88;;;12.00;;
65835;SDS011;52595;51.608;7.216;2022-11-20T00:27:07;23.55;;;11.88;;
65835;SDS011;52595;51.608;7.216;2022-11-20T00:29:33;24.70;;;12.43;;
65835;SDS011;52595;51.608;7.216;2022-11-20T00:31:58;22.45;;;11.77;;
65835;SDS011;52595;51.608;7.216;2022-11-20T00:34:23;22.20;;;10.98;;
65835;SDS011;52595;51.608;7.216;2022-11-20T00:36:49;23.55;;;11.95;;
65835;SDS011;52595;51.608;7.216;2022-11-20T00:39:14;21.25;;;11.48;;
65835;SDS011;52595;51.608;7.216;2022-11-20T00:41:39;22.83;;;11.90;;
65835;SDS011;52595;51.608;7.216;2022-11-20T00:44:05;23.55;;;12.23;;
65835;SDS011;52595;51.608;7.216;2022-11-20T00:46:30;25.40;;;11.70;;
65835;SDS011;52595;51.608;7.216;2022-11-20T00:48:56;23.67;;;12.57;;
65835;SDS011;52595;51.608;7.216;2022-11-20T00:51:22;23.08;;;11.77;;
65835;SDS011;52595;51.608;7.216;2022-11-20T00:53:49;19.48;;;10.93;;
65835;SDS011;52595;51.608;7.216;2022-11-20T00:56:16;24.05;;;12.43;;
65835;SDS011;52595;51.608;7.216;2022-11-20T00:58:43;21.95;;;11.63;;
65835;SDS011;52595;51.608;7.216;2022-11-20T01:01:13;24.15;;;12.27;;
65835;SDS011;52595;51.608;7.216;2022-11-20T01:03:43;22.50;;;11.43;;
65835;SDS011;52595;51.608;7.216;2022-11-20T01:06:14;23.58;;;11.68;;
65835;SDS011;52595;51.608;7.216;2022-11-20T01:08:42;19.40;;;11.07;;
65835;SDS011;52595;51.608;7.216;2022-11-20T01:11:09;24.83;;;12.32;;
65835;SDS011;52595;51.608;7.216;2022-11-20T01:13:40;24.40;;;12.43;;
65835;SDS011;52595;51.608;7.216;2022-11-20T01:16:07;24.75;;;12.40;;
65835;SDS011;52595;51.608;7.216;2022-11-20T01:18:36;24.63;;;12.75;;
65835;SDS011;52595;51.608;7.216;2022-11-20T01:21:04;25.70;;;12.88;;
65835;SDS011;52595;51.608;7.216;2022-11-20T01:23:31;26.63;;;12.60;;
65835;SDS011;52595;51.608;7.216;2022-11-20T01:25:59;26.60;;;13.00;;
65835;SDS011;52595;51.608;7.216;2022-11-20T01:28:26;25.50;;;12.40;;
65835;SDS011;52595;51.608;7.216;2022-11-20T01:30:51;24.08;;;12.52;;
65835;SDS011;52595;51.608;7.216;2022-11-20T01:33:17;24.55;;;12.57;;
65835;SDS011;52595;51.608;7.216;2022-11-20T01:35:42;27.48;;;13.18;;
65835;SDS011;52595;51.608;7.216;2022-11-20T01:38:08;26.70;;;13.35;;
65835;SDS011;52595;51.608;7.216;2022-11-20T01:40:33;25.55;;;13.40;;
65835;SDS011;52595;51.608;7.216;2022-11-20T01:43:06;25.50;;;13.00;;
65835;SDS011;52595;51.608;7.216;2022-11-20T01:45:52;29.17;;;13.23;;
65835;SDS011;52595;51.608;7.216;2022-11-20T01:48:23;26.38;;;13.63;;
65835;SDS011;52595;51.608;7.216;2022-11-20T01:50:53;25.60;;;12.83;;
65835;SDS011;52595;51.608;7.216;2022-11-20T01:53:21;25.23;;;13.00;;
65835;SDS011;52595;51.608;7.216;2022-11-20T01:55:53;25.02;;;12.32;;
65835;SDS011;52595;51.608;7.216;2022-11-20T01:58:26;28.13;;;13.27;;
65835;SDS011;52595;51.608;7.216;2022-11-20T02:00:55;24.08;;;12.38;;
65835;SDS011;52595;51.608;7.216;2022-11-20T02:03:21;24.10;;;13.00;;
65835;SDS011;52595;51.608;7.216;2022-11-20T02:10:44;22.60;;;10.93;;
65835;SDS011;52595;51.608;7.216;2022-11-20T02:13:09;28.15;;;13.02;;
65835;SDS011;52595;51.608;7.216;2022-11-20T02:15:53;27.17;;;12.45;;
65835;SDS011;52595;51.608;7.216;2022-11-20T02:18:20;28.85;;;13.88;;
65835;SDS011;52595;51.608;7.216;2022-11-20T02:20:47;26.65;;;13.65;;
65835;SDS011;52595;51.608;7.216;2022-11-20T02:23:16;24.35;;;12.95;;
65835;SDS011;52595;51.608;7.216;2022-11-20T02:25:56;27.67;;;12.73;;
65835;SDS011;52595;51.608;7.216;2022-11-20T02:28:23;26.25;;;13.35;;
65835;SDS011;52595;51.608;7.216;2022-11-20T02:30:49;24.65;;;12.57;;
65835;SDS011;52595;51.608;7.216;2022-11-20T02:33:14;24.83;;;12.60;;
65835;SDS011;52595;51.608;7.216;2022-11-20T02:35:42;25.30;;;12.95;;
65835;SDS011;52595;51.608;7.216;2022-11-20T02:38:09;27.08;;;13.70;;
65835;SDS011;52595;51.608;7.216;2022-11-20T02:40:35;27.20;;;13.95;;
65835;SDS011;52595;51.608;7.216;2022-11-20T02:43:00;25.60;;;12.73;;
65835;SDS011;52595;51.608;7.216;2022-11-20T02:45:26;26.05;;;13.57;;
65835;SDS011;52595;51.608;7.216;2022-11-20T02:47:51;24.33;;;12.80;;
65835;SDS011;52595;51.608;7.216;2022-11-20T02:50:17;26.20;;;12.15;;
65835;SDS011;52595;51.608;7.216;2022-11-20T02:52:43;25.40;;;12.70;;
65835;SDS011;52595;51.608;7.216;2022-11-20T02:55:08;25.15;;;13.25;;
65835;SDS011;52595;51.608;7.216;2022-11-20T02:57:34;24.42;;;13.48;;
65835;SDS011;52595;51.608;7.216;2022-11-20T02:59:59;26.98;;;13.27;;
65835;SDS011;52595;51.608;7.216;2022-11-20T03:02:25;25.27;;;12.70;;
65835;SDS011;52595;51.608;7.216;2022-11-20T03:04:50;24.35;;;12.77;;
65835;SDS011;52595;51.608;7.216;2022-11-20T03:07:15;31.98;;;14.00;;
65835;SDS011;52595;51.608;7.216;2022-11-20T03:09:41;28.98;;;13.65;;
65835;SDS011;52595;51.608;7.216;2022-11-20T03:12:06;28.13;;;13.43;;
65835;SDS011;52595;51.608;7.216;2022-11-20T03:14:32;27.45;;;13.30;;
65835;SDS011;52595;51.608;7.216;2022-11-20T03:16:57;31.00;;;14.57;;
65835;SDS011;52595;51.608;7.216;2022-11-20T03:19:23;29.13;;;15.02;;
65835;SDS011;52595;51.608;7.216;2022-11-20T03:21:48;30.83;;;14.70;;
65835;SDS011;52595;51.608;7.216;2022-11-20T03:24:14;33.72;;;15.95;;
65835;SDS011;52595;51.608;7.216;2022-11-20T03:26:40;38.30;;;17.73;;
65835;SDS011;52595;51.608;7.216;2022-11-20T03:29:06;36.20;;;15.20;;
65835;SDS011;52595;51.608;7.216;2022-11-20T03:31:38;28.05;;;13.65;;
65835;SDS011;52595;51.608;7.216;2022-11-20T03:34:05;29.33;;;13.77;;
65835;SDS011;52595;51.608;7.216;2022-11-20T03:36:31;24.73;;;13.00;;
65835;SDS011;52595;51.608;7.216;2022-11-20T03:38:56;26.73;;;12.68;;
65835;SDS011;52595;51.608;7.216;2022-11-20T03:41:24;26.83;;;13.73;;
65835;SDS011;52595;51.608;7.216;2022-11-20T03:43:57;30.08;;;13.68;;
65835;SDS011;52595;51.608;7.216;2022-11-20T03:46:25;26.02;;;12.68;;
65835;SDS011;52595;51.608;7.216;2022-11-20T03:48:51;27.73;;;13.70;;
65835;SDS011;52595;51.608;7.216;2022-11-20T03:51:24;28.80;;;14.00;;
65835;SDS011;52595;51.608;7.216;2022-11-20T03:53:55;26.27;;;13.38;;
65835;SDS011;52595;51.608;7.216;2022-11-20T03:56:23;26.90;;;14.20;;
65835;SDS011;52595;51.608;7.216;2022-11-20T03:58:50;30.60;;;13.05;;
65835;SDS011;52595;51.608;7.216;2022-11-20T04:01:16;27.48;;;14.05;;
65835;SDS011;52595;51.608;7.216;2022-11-20T04:03:44;29.35;;;12.98;;
65835;SDS011;52595;51.608;7.216;2022-11-20T04:06:14;25.38;;;12.50;;
65835;SDS011;52595;51.608;7.216;2022-11-20T04:08:41;25.08;;;12.80;;
65835;SDS011;52595;51.608;7.216;2022-11-20T04:11:14;24.63;;;12.32;;
65835;SDS011;52595;51.608;7.216;2022-11-20T04:13:41;26.98;;;13.02;;
65835;SDS011;52595;51.608;7.216;2022-11-20T04:16:08;27.60;;;12.93;;
65835;SDS011;52595;51.608;7.216;2022-11-20T04:18:34;24.08;;;12.30;;
65835;SDS011;52595;51.608;7.216;2022-11-20T04:21:00;25.50;;;13.18;;
65835;SDS011;52595;51.608;7.216;2022-11-20T04:23:26;23.98;;;12.52;;
65835;SDS011;52595;51.608;7.216;2022-11-20T04:25:52;25.23;;;12.90;;
65835;SDS011;52595;51.608;7.216;2022-11-20T04:28:17;23.70;;;11.95;;
65835;SDS011;52595;51.608;7.216;2022-11-20T04:30:43;25.10;;;12.32;;
65835;SDS011;52595;51.608;7.216;2022-11-20T04:33:09;23.63;;;12.05;;
65835;SDS011;52595;51.608;7.216;2022-11-20T04:35:34;26.08;;;13.05;;
65835;SDS011;52595;51.608;7.216;2022-11-20T04:38:00;26.70;;;13.07;;
65835;SDS011;52595;51.608;7.216;2022-11-20T04:40:27;26.63;;;13.93;;
65835;SDS011;52595;51.608;7.216;2022-11-20T04:42:52;24.98;;;12.93;;
65835;SDS011;52595;51.608;7.216;2022-11-20T04:45:19;27.58;;;13.48;;
65835;SDS011;52595;51.608;7.216;2022-11-20T04:47:44;28.48;;;14.23;;
65835;SDS011;52595;51.608;7.216;2022-11-20T04:50:10;30.27;;;14.70;;
65835;SDS011;52595;51.608;7.216;2022-11-20T04:52:35;25.83;;;13.95;;
65835;SDS011;52595;51.608;7.216;2022-11-20T04:55:01;28.48;;;14.52;;
65835;SDS011;52595;51.608;7.216;2022-11-20T04:57:26;31.25;;;13.48;;
65835;SDS011;52595;51.608;7.216;2022-11-20T04:59:51;32.00;;;14.90;;
65835;SDS011;52595;51.608;7.216;2022-11-20T05:02:18;29.50;;;15.05;;
65835;SDS011;52595;51.608;7.216;2022-11-20T05:04:43;28.52;;;14.82;;
65835;SDS011;52595;51.608;7.216;2022-11-20T05:07:09;29.00;;;15.15;;
65835;SDS011;52595;51.608;7.216;2022-11-20T05:09:34;30.38;;;14.95;;
65835;SDS011;52595;51.608;7.216;2022-11-20T05:11:59;27.50;;;14.50;;
65835;SDS011;52595;51.608;7.216;2022-11-20T05:14:25;31.63;;;16.13;;
65835;SDS011;52595;51.608;7.216;2022-11-20T05:16:50;30.35;;;15.35;;
65835;SDS011;52595;51.608;7.216;2022-11-20T05:19:15;27.02;;;14.57;;
65835;SDS011;52595;51.608;7.216;2022-11-20T05:21:41;30.40;;;14.57;;
65835;SDS011;52595;51.608;7.216;2022-11-20T05:24:06;27.63;;;14.68;;
65835;SDS011;52595;51.608;7.216;2022-11-20T05:26:32;27.98;;;14.80;;
65835;SDS011;52595;51.608;7.216;2022-11-20T05:28:57;28.83;;;14.18;;
65835;SDS011;52595;51.608;7.216;2022-11-20T05:31:23;27.50;;;15.40;;
65835;SDS011;52595;51.608;7.216;2022-11-20T05:33:50;28.42;;;14.50;;
65835;SDS011;52595;51.608;7.216;2022-11-20T05:36:16;26.85;;;14.98;;
65835;SDS011;52595;51.608;7.216;2022-11-20T05:38:42;29.65;;;14.70;;
65835;SDS011;52595;51.608;7.216;2022-11-20T05:41:09;36.38;;;18.73;;
65835;SDS011;52595;51.608;7.216;2022-11-20T05:43:35;31.75;;;16.83;;
65835;SDS011;52595;51.608;7.216;2022-11-20T05:46:02;34.88;;;15.95;;
65835;SDS011;52595;51.608;7.216;2022-11-20T05:48:28;30.40;;;15.60;;
65835;SDS011;52595;51.608;7.216;2022-11-20T05:50:54;36.67;;;18.13;;
65835;SDS011;52595;51.608;7.216;2022-11-20T05:53:21;45.20;;;20.50;;
65835;SDS011;52595;51.608;7.216;2022-11-20T05:55:46;35.40;;;16.95;;
65835;SDS011;52595;51.608;7.216;2022-11-20T05:58:21;38.53;;;17.73;;
65835;SDS011;52595;51.608;7.216;2022-11-20T06:00:46;33.22;;;16.67;;
65835;SDS011;52595;51.608;7.216;2022-11-20T06:03:12;35.10;;;16.40;;
65835;SDS011;52595;51.608;7.216;2022-11-20T06:05:37;33.42;;;15.77;;
65835;SDS011;52595;51.608;7.216;2022-11-20T06:08:02;30.38;;;15.45;;
65835;SDS011;52595;51.608;7.216;2022-11-20T06:10:28;31.15;;;14.82;;
65835;SDS011;52595;51.608;7.216;2022-11-20T06:12:53;34.92;;;17.15;;
65835;SDS011;52595;51.608;7.216;2022-11-20T06:15:22;38.38;;;16.98;;
65835;SDS011;52595;51.608;7.216;2022-11-20T06:17:51;43.97;;;20.58;;
65835;SDS011;52595;51.608;7.216;2022-11-20T06:20:18;114.00;;;38.00;;
65835;SDS011;52595;51.608;7.216;2022-11-20T06:22:44;47.33;;;20.83;;
65835;SDS011;52595;51.608;7.216;2022-11-20T06:25:09;124.32;;;43.17;;
65835;SDS011;52595;51.608;7.216;2022-11-20T06:27:35;80.80;;;29.48;;
65835;SDS011;52595;51.608;7.216;2022-11-20T06:30:00;60.60;;;25.98;;
65835;SDS011;52595;51.608;7.216;2022-11-20T06:32:25;61.15;;;25.65;;
65835;SDS011;52595;51.608;7.216;2022-11-20T06:34:51;54.53;;;21.75;;
65835;SDS011;52595;51.608;7.216;2022-11-20T06:37:16;45.45;;;20.15;;
65835;SDS011;52595;51.608;7.216;2022-11-20T06:39:41;35.95;;;18.83;;
65835;SDS011;52595;51.608;7.216;2022-11-20T06:42:07;42.88;;;23.33;;
65835;SDS011;52595;51.608;7.216;2022-11-20T06:44:32;36.10;;;20.20;;
65835;SDS011;52595;51.608;7.216;2022-11-20T06:46:57;36.60;;;17.98;;
65835;SDS011;52595;51.608;7.216;2022-11-20T06:49:23;34.10;;;17.70;;
65835;SDS011;52595;51.608;7.216;2022-11-20T06:51:48;29.85;;;15.88;;
65835;SDS011;52595;51.608;7.216;2022-11-20T06:54:14;30.98;;;16.45;;
65835;SDS011;52595;51.608;7.216;2022-11-20T06:56:39;30.90;;;16.80;;
65835;SDS011;52595;51.608;7.216;2022-11-20T06:59:05;31.58;;;16.77;;
65835;SDS011;52595;51.608;7.216;2022-11-20T07:01:32;34.17;;;17.27;;
65835;SDS011;52595;51.608;7.216;2022-11-20T07:03:57;31.60;;;15.98;;
65835;SDS011;52595;51.608;7.216;2022-11-20T07:06:23;30.50;;;15.23;;
65835;SDS011;52595;51.608;7.216;2022-11-20T07:08:49;33.40;;;15.48;;
65835;SDS011;52595;51.608;7.216;2022-11-20T07:11:17;29.80;;;15.88;;
65835;SDS011;52595;51.608;7.216;2022-11-20T07:13:42;31.75;;;16.42;;
65835;SDS011;52595;51.608;7.216;2022-11-20T07:16:08;37.63;;;17.13;;
65835;SDS011;52595;51.608;7.216;2022-11-20T07:18:34;29.65;;;15.95;;
65835;SDS011;52595;51.608;7.216;2022-11-20T07:21:00;32.45;;;15.43;;
65835;SDS011;52595;51.608;7.216;2022-11-20T07:23:26;31.48;;;15.73;;
65835;SDS011;52595;51.608;7.216;2022-11-20T07:25:52;31.40;;;16.80;;
65835;SDS011;52595;51.608;7.216;2022-11-20T07:28:17;36.35;;;17.25;;
65835;SDS011;52595;51.608;7.216;2022-11-20T07:30:43;35.28;;;17.15;;
65835;SDS011;52595;51.608;7.216;2022-11-20T07:33:15;32.30;;;15.80;;
65835;SDS011;52595;51.608;7.216;2022-11-20T07:35:40;35.92;;;16.65;;
65835;SDS011;52595;51.608;7.216;2022-11-20T07:38:06;36.40;;;17.17;;
65835;SDS011;52595;51.608;7.216;2022-11-20T07:40:31;33.97;;;16.55;;
65835;SDS011;52595;51.608;7.216;2022-11-20T07:42:56;33.97;;;16.65;;
65835;SDS011;52595;51.608;7.216;2022-11-20T07:45:22;35.65;;;17.85;;
65835;SDS011;52595;51.608;7.216;2022-11-20T07:47:48;33.63;;;17.58;;
65835;SDS011;52595;51.608;7.216;2022-11-20T07:50:14;39.00;;;18.63;;
65835;SDS011;52595;51.608;7.216;2022-11-20T07:52:40;125.22;;;41.28;;
65835;SDS011;52595;51.608;7.216;2022-11-20T07:55:05;80.97;;;30.27;;
65835;SDS011;52595;51.608;7.216;2022-11-20T07:57:31;94.10;;;34.78;;
65835;SDS011;52595;51.608;7.216;2022-11-20T07:59:57;126.63;;;45.15;;
65835;SDS011;52595;51.608;7.216;2022-11-20T08:02:22;109.28;;;40.15;;
65835;SDS011;52595;51.608;7.216;2022-11-20T08:04:48;73.57;;;29.90;;
65835;SDS011;52595;51.608;7.216;2022-11-20T08:07:13;50.13;;;23.98;;
65835;SDS011;52595;51.608;7.216;2022-11-20T08:09:38;52.60;;;24.15;;
65835;SDS011;52595;51.608;7.216;2022-11-20T08:12:04;41.35;;;21.15;;
65835;SDS011;52595;51.608;7.216;2022-11-20T08:14:48;38.58;;;20.33;;
65835;SDS011;52595;51.608;7.216;2022-11-20T08:17:13;35.40;;;18.73;;
65835;SDS011;52595;51.608;7.216;2022-11-20T08:19:39;33.63;;;17.88;;
65835;SDS011;52595;51.608;7.216;2022-11-20T08:22:04;29.65;;;16.85;;
65835;SDS011;52595;51.608;7.216;2022-11-20T08:24:29;38.83;;;20.55;;
65835;SDS011;52595;51.608;7.216;2022-11-20T08:26:56;38.50;;;18.70;;
65835;SDS011;52595;51.608;7.216;2022-11-20T08:29:24;33.17;;;18.30;;
65835;SDS011;52595;51.608;7.216;2022-11-20T08:31:49;36.47;;;17.80;;
65835;SDS011;52595;51.608;7.216;2022-11-20T08:34:14;36.35;;;17.42;;
65835;SDS011;52595;51.608;7.216;2022-11-20T08:36:40;36.67;;;18.25;;
65835;SDS011;52595;51.608;7.216;2022-11-20T08:39:05;36.60;;;19.13;;
65835;SDS011;52595;51.608;7.216;2022-11-20T08:41:31;34.40;;;19.15;;
65835;SDS011;52595;51.608;7.216;2022-11-20T08:44:01;39.95;;;19.10;;
65835;SDS011;52595;51.608;7.216;2022-11-20T08:46:35;38.78;;;19.75;;
65835;SDS011;52595;51.608;7.216;2022-11-20T08:49:03;40.35;;;20.25;;
65835;SDS011;52595;51.608;7.216;2022-11-20T08:51:29;37.38;;;18.83;;
65835;SDS011;52595;51.608;7.216;2022-11-20T08:53:55;38.63;;;19.20;;
65835;SDS011;52595;51.608;7.216;2022-11-20T08:56:20;38.58;;;19.83;;
65835;SDS011;52595;51.608;7.216;2022-11-20T08:58:46;38.92;;;20.08;;
65835;SDS011;52595;51.608;7.216;2022-11-20T09:01:11;40.88;;;21.38;;
65835;SDS011;52595;51.608;7.216;2022-11-20T09:03:36;38.90;;;19.88;;
65835;SDS011;52595;51.608;7.216;2022-11-20T09:06:03;33.75;;;18.88;;
65835;SDS011;52595;51.608;7.216;2022-11-20T09:08:30;37.47;;;19.35;;
65835;SDS011;52595;51.608;7.216;2022-11-20T09:10:56;36.65;;;19.90;;
65835;SDS011;52595;51.608;7.216;2022-11-20T09:13:23;40.92;;;21.02;;
65835;SDS011;52595;51.608;7.216;2022-11-20T09:16:08;42.65;;;21.58;;
65835;SDS011;52595;51.608;7.216;2022-11-20T09:18:34;43.17;;;22.15;;
65835;SDS011;52595;51.608;7.216;2022-11-20T09:21:05;46.35;;;25.10;;
65835;SDS011;52595;51.608;7.216;2022-11-20T09:23:35;48.45;;;24.95;;
65835;SDS011;52595;51.608;7.216;2022-11-20T09:26:02;41.35;;;23.85;;
65835;SDS011;52595;51.608;7.216;2022-11-20T09:28:29;48.30;;;24.38;;
65835;SDS011;52595;51.608;7.216;2022-11-20T09:30:54;43.05;;;23.58;;
65835;SDS011;52595;51.608;7.216;2022-11-20T09:33:20;43.40;;;23.55;;
65835;SDS011;52595;51.608;7.216;2022-11-20T09:35:45;42.10;;;23.15;;
65835;SDS011;52595;51.608;7.216;2022-11-20T09:38:11;45.17;;;23.40;;
65835;SDS011;52595;51.608;7.216;2022-11-20T09:40:38;45.75;;;23.73;;
65835;SDS011;52595;51.608;7.216;2022-11-20T09:43:14;43.17;;;22.90;;
65835;SDS011;52595;51.608;7.216;2022-11-20T09:48:42;41.67;;;22.00;;
65835;SDS011;52595;51.608;7.216;2022-11-20T09:54:54;43.20;;;21.58;;
65835;SDS011;52595;51.608;7.216;2022-11-20T09:57:21;40.08;;;21.60;;
65835;SDS011;52595;51.608;7.216;2022-11-20T09:59:54;37.77;;;20.97;;
65835;SDS011;52595;51.608;7.216;2022-11-20T10:04:51;39.45;;;21.00;;
65835;SDS011;52595;51.608;7.216;2022-11-20T10:07:23;45.55;;;21.23;;
65835;SDS011;52595;51.608;7.216;2022-11-20T10:09:56;41.45;;;21.38;;
65835;SDS011;52595;51.608;7.216;2022-11-20T10:12:34;44.58;;;21.63;;
65835;SDS011;52595;51.608;7.216;2022-11-20T10:18:02;45.78;;;21.33;;
65835;SDS011;52595;51.608;7.216;2022-11-20T10:29:01;40.35;;;21.98;;
65835;SDS011;52595;51.608;7.216;2022-11-20T10:31:36;40.20;;;21.95;;
65835;SDS011;52595;51.608;7.216;2022-11-20T10:34:06;36.40;;;21.02;;
65835;SDS011;52595;51.608;7.216;2022-11-20T10:36:52;37.83;;;22.00;;
65835;SDS011;52595;51.608;7.216;2022-11-20T10:39:25;39.65;;;20.77;;
65835;SDS011;52595;51.608;7.216;2022-11-20T10:41:53;38.10;;;21.05;;
65835;SDS011;52595;51.608;7.216;2022-11-20T10:44:20;38.65;;;20.90;;
65835;SDS011;52595;51.608;7.216;2022-11-20T10:47:11;35.38;;;20.75;;
65835;SDS011;52595;51.608;7.216;2022-11-20T10:49:39;40.38;;;21.90;;
65835;SDS011;52595;51.608;7.216;2022-11-20T10:54:57;39.90;;;21.00;;
65835;SDS011;52595;51.608;7.216;2022-11-20T11:00:10;38.50;;;19.90;;
65835;SDS011;52595;51.608;7.216;2022-11-20T11:02:50;36.08;;;20.17;;
65835;SDS011;52595;51.608;7.216;2022-11-20T11:07:54;35.65;;;18.38;;
65835;SDS011;52595;51.608;7.216;2022-11-20T11:10:23;29.80;;;16.83;;
65835;SDS011;52595;51.608;7.216;2022-11-20T11:12:53;29.30;;;17.35;;
65835;SDS011;52595;51.608;7.216;2022-11-20T11:15:28;30.52;;;17.88;;
65835;SDS011;52595;51.608;7.216;2022-11-20T11:18:01;34.78;;;19.00;;
65835;SDS011;52595;51.608;7.216;2022-11-20T11:20:26;32.47;;;19.20;;
65835;SDS011;52595;51.608;7.216;2022-11-20T11:22:53;28.30;;;17.33;;
65835;SDS011;52595;51.608;7.216;2022-11-20T11:25:22;28.88;;;15.90;;
65835;SDS011;52595;51.608;7.216;2022-11-20T11:28:17;26.23;;;14.77;;
65835;SDS011;52595;51.608;7.216;2022-11-20T11:30:49;25.25;;;14.65;;
65835;SDS011;52595;51.608;7.216;2022-11-20T11:33:19;25.05;;;14.80;;
65835;SDS011;52595;51.608;7.216;2022-11-20T11:38:22;22.77;;;13.00;;
65835;SDS011;52595;51.608;7.216;2022-11-20T11:40:56;22.92;;;13.10;;
65835;SDS011;52595;51.608;7.216;2022-11-20T11:43:23;22.85;;;13.27;;
65835;SDS011;52595;51.608;7.216;2022-11-20T11:54:23;28.35;;;15.52;;
65835;SDS011;52595;51.608;7.216;2022-11-20T11:56:53;39.17;;;20.67;;
65835;SDS011;52595;51.608;7.216;2022-11-20T11:59:23;31.40;;;16.70;;
65835;SDS011;52595;51.608;7.216;2022-11-20T12:01:57;25.75;;;15.40;;
65835;SDS011;52595;51.608;7.216;2022-11-20T12:04:46;29.17;;;15.82;;
65835;SDS011;52595;51.608;7.216;2022-11-20T12:10:20;23.67;;;13.88;;
65835;SDS011;52595;51.608;7.216;2022-11-20T12:13:13;23.10;;;13.60;;
65835;SDS011;52595;51.608;7.216;2022-11-20T12:15:43;22.27;;;13.38;;
65835;SDS011;52595;51.608;7.216;2022-11-20T12:18:14;22.33;;;12.93;;
65835;SDS011;52595;51.608;7.216;2022-11-20T12:20:43;23.48;;;13.82;;
65835;SDS011;52595;51.608;7.216;2022-11-20T12:23:23;22.90;;;13.38;;
65835;SDS011;52595;51.608;7.216;2022-11-20T12:26:22;21.85;;;13.18;;
65835;SDS011;52595;51.608;7.216;2022-11-20T12:28:53;20.88;;;11.90;;
65835;SDS011;52595;51.608;7.216;2022-11-20T12:39:12;18.58;;;11.23;;
65835;SDS011;52595;51.608;7.216;2022-11-20T12:41:58;19.38;;;11.63;;
65835;SDS011;52595;51.608;7.216;2022-11-20T12:56:07;25.30;;;14.40;;
65835;SDS011;52595;51.608;7.216;2022-11-20T13:01:56;26.30;;;14.75;;
65835;SDS011;52595;51.608;7.216;2022-11-20T13:04:47;21.98;;;13.30;;
65835;SDS011;52595;51.608;7.216;2022-11-20T13:07:14;24.40;;;13.50;;
65835;SDS011;52595;51.608;7.216;2022-11-20T13:09:45;24.02;;;13.07;;
65835;SDS011;52595;51.608;7.216;2022-11-20T13:14:49;28.33;;;14.02;;
65835;SDS011;52595;51.608;7.216;2022-11-20T13:19:52;25.77;;;13.55;;
65835;SDS011;52595;51.608;7.216;2022-11-20T13:22:25;24.05;;;13.38;;
65835;SDS011;52595;51.608;7.216;2022-11-20T13:24:52;23.80;;;13.73;;
65835;SDS011;52595;51.608;7.216;2022-11-20T13:27:18;24.73;;;13.73;;
65835;SDS011;52595;51.608;7.216;2022-11-20T13:29:59;24.75;;;13.65;;
65835;SDS011;52595;51.608;7.216;2022-11-20T13:32:47;25.40;;;14.15;;
65835;SDS011;52595;51.608;7.216;2022-11-20T13:35:55;26.30;;;14.23;;
65835;SDS011;52595;51.608;7.216;2022-11-20T13:38:19;26.65;;;13.30;;
65835;SDS011;52595;51.608;7.216;2022-11-20T14:53:47;26.85;;;14.43;;
65835;SDS011;52595;51.608;7.216;2022-11-20T14:56:12;30.42;;;16.02;;
65835;SDS011;52595;51.608;7.216;2022-11-20T14:58:54;28.90;;;15.75;;
65835;SDS011;52595;51.608;7.216;2022-11-20T15:01:27;32.03;;;16.80;;
65835;SDS011;52595;51.608;7.216;2022-11-20T15:04:00;34.30;;;17.45;;
65835;SDS011;52595;51.608;7.216;2022-11-20T15:06:34;30.70;;;16.25;;
65835;SDS011;52595;51.608;7.216;2022-11-20T15:09:01;32.22;;;16.45;;
65835;SDS011;52595;51.608;7.216;2022-11-20T15:11:38;29.15;;;15.75;;
65835;SDS011;52595;51.608;7.216;2022-11-20T15:14:04;30.75;;;15.98;;
65835;SDS011;52595;51.608;7.216;2022-11-20T15:16:31;31.65;;;16.60;;
65835;SDS011;52595;51.608;7.216;2022-11-20T15:18:58;28.13;;;15.88;;
65835;SDS011;52595;51.608;7.216;2022-11-20T15:21:24;31.25;;;16.70;;
65835;SDS011;52595;51.608;7.216;2022-11-20T15:23:50;33.08;;;16.58;;
65835;SDS011;52595;51.608;7.216;2022-11-20T15:26:25;32.50;;;17.05;;
65835;SDS011;52595;51.608;7.216;2022-11-20T15:28:52;33.15;;;16.92;;
65835;SDS011;52595;51.608;7.216;2022-11-20T15:31:20;30.48;;;16.38;;
65835;SDS011;52595;51.608;7.216;2022-11-20T15:33:48;27.00;;;15.68;;
65835;SDS011;52595;51.608;7.216;2022-11-20T15:36:14;28.33;;;15.38;;
65835;SDS011;52595;51.608;7.216;2022-11-20T15:38:40;29.55;;;15.63;;
65835;SDS011;52595;51.608;7.216;2022-11-20T15:41:05;28.25;;;16.00;;
65835;SDS011;52595;51.608;7.216;2022-11-20T15:43:31;30.02;;;16.38;;
65835;SDS011;52595;51.608;7.216;2022-11-20T15:46:02;34.13;;;17.65;;
65835;SDS011;52595;51.608;7.216;2022-11-20T15:48:31;30.80;;;16.80;;
65835;SDS011;52595;51.608;7.216;2022-11-20T15:51:05;33.38;;;16.60;;
65835;SDS011;52595;51.608;7.216;2022-11-20T15:53:35;31.08;;;16.55;;
65835;SDS011;52595;51.608;7.216;2022-11-20T15:56:01;36.72;;;16.92;;
65835;SDS011;52595;51.608;7.216;2022-11-20T15:58:27;33.67;;;16.95;;
65835;SDS011;52595;51.608;7.216;2022-11-20T16:00:53;32.22;;;17.65;;
65835;SDS011;52595;51.608;7.216;2022-11-20T16:03:18;34.25;;;16.70;;
65835;SDS011;52595;51.608;7.216;2022-11-20T16:05:44;36.60;;;17.25;;
65835;SDS011;52595;51.608;7.216;2022-11-20T16:08:11;35.60;;;17.25;;
65835;SDS011;52595;51.608;7.216;2022-11-20T16:10:39;33.88;;;16.80;;
65835;SDS011;52595;51.608;7.216;2022-11-20T16:13:12;37.88;;;18.55;;
65835;SDS011;52595;51.608;7.216;2022-11-20T16:15:58;35.08;;;18.13;;
65835;SDS011;52595;51.608;7.216;2022-11-20T16:18:26;33.40;;;17.85;;
65835;SDS011;52595;51.608;7.216;2022-11-20T16:20:52;36.83;;;18.70;;
65835;SDS011;52595;51.608;7.216;2022-11-20T16:23:19;37.75;;;18.75;;
65835;SDS011;52595;51.608;7.216;2022-11-20T16:25:46;36.47;;;17.77;;
65835;SDS011;52595;51.608;7.216;2022-11-20T16:28:12;36.00;;;18.25;;
65835;SDS011;52595;51.608;7.216;2022-11-20T16:30:38;37.88;;;19.02;;
65835;SDS011;52595;51.608;7.216;2022-11-20T16:33:04;36.10;;;18.40;;
65835;SDS011;52595;51.608;7.216;2022-11-20T16:35:34;38.85;;;19.58;;
65835;SDS011;52595;51.608;7.216;2022-11-20T16:37:59;39.28;;;19.75;;
65835;SDS011;52595;51.608;7.216;2022-11-20T16:40:25;40.15;;;19.75;;
65835;SDS011;52595;51.608;7.216;2022-11-20T16:42:51;37.75;;;19.25;;
65835;SDS011;52595;51.608;7.216;2022-11-20T16:45:16;40.10;;;20.70;;
65835;SDS011;52595;51.608;7.216;2022-11-20T16:47:42;37.92;;;19.48;;
65835;SDS011;52595;51.608;7.216;2022-11-20T16:50:08;40.97;;;20.25;;
65835;SDS011;52595;51.608;7.216;2022-11-20T16:52:34;39.55;;;20.45;;
65835;SDS011;52595;51.608;7.216;2022-11-20T16:55:00;40.50;;;21.48;;